sensor_id;sensor_type;location;lat;lon;timestamp;P1;durP1;ratioP1;P2;durP2;ratioP2
79371;SDS011;68914;51.262;6.802;2023-04-15T00:00:15;12.83;;;5.77;;
79371;SDS011;68914;51.262;6.802;2023-04-15T00:01:18;12.15;;;5.97;;
79371;SDS011;68914;51.262;6.802;2023-04-15T00:02:20;15.50;;;7.50;;
79371;SDS011;68914;51.262;6.802;2023-04-15T00:03:20;19.55;;;9.15;;
79371;SDS011;68914;51.262;6.802;2023-04-15T00:04:21;19.48;;;8.90;;
79371;SDS011;68914;51.262;6.802;2023-04-15T00:05:22;16.53;;;8.27;;
79371;SDS011;68914;51.262;6.802;2023-04-15T00:06:22;14.82;;;7.57;;
79371;SDS011;68914;51.262;6.802;2023-04-15T00:07:24;20.88;;;8.77;;
79371;SDS011;68914;51.262;6.802;2023-04-15T00:08:24;16.67;;;8.37;;
79371;SDS011;68914;51.262;6.802;2023-04-15T00:09:25;16.88;;;8.80;;
79371;SDS011;68914;51.262;6.802;2023-04-15T00:10:26;16.57;;;8.40;;
79371;SDS011;68914;51.262;6.802;2023-04-15T00:11:27;15.88;;;7.53;;
79371;SDS011;68914;51.262;6.802;2023-04-15T00:12:28;16.17;;;7.73;;
79371;SDS011;68914;51.262;6.802;2023-04-15T00:13:28;17.90;;;8.10;;
79371;SDS011;68914;51.262;6.802;2023-04-15T00:14:29;17.10;;;7.53;;
79371;SDS011;68914;51.262;6.802;2023-04-15T00:15:30;15.95;;;8.27;;
79371;SDS011;68914;51.262;6.802;2023-04-15T00:16:31;15.37;;;7.40;;
79371;SDS011;68914;51.262;6.802;2023-04-15T00:17:31;14.80;;;7.80;;
79371;SDS011;68914;51.262;6.802;2023-04-15T00:18:32;16.52;;;7.53;;
79371;SDS011;68914;51.262;6.802;2023-04-15T00:19:33;14.57;;;6.47;;
79371;SDS011;68914;51.262;6.802;2023-04-15T00:20:34;14.37;;;6.17;;
79371;SDS011;68914;51.262;6.802;2023-04-15T00:21:34;12.23;;;6.55;;
79371;SDS011;68914;51.262;6.802;2023-04-15T00:22:35;12.00;;;6.28;;
79371;SDS011;68914;51.262;6.802;2023-04-15T00:23:36;11.73;;;5.97;;
79371;SDS011;68914;51.262;6.802;2023-04-15T00:24:37;11.90;;;5.93;;
79371;SDS011;68914;51.262;6.802;2023-04-15T00:25:38;14.00;;;5.85;;
79371;SDS011;68914;51.262;6.802;2023-04-15T00:26:39;13.55;;;6.30;;
79371;SDS011;68914;51.262;6.802;2023-04-15T00:27:39;12.83;;;6.37;;
79371;SDS011;68914;51.262;6.802;2023-04-15T00:28:40;14.80;;;6.05;;
79371;SDS011;68914;51.262;6.802;2023-04-15T00:29:41;14.07;;;6.40;;
79371;SDS011;68914;51.262;6.802;2023-04-15T00:30:42;12.70;;;5.78;;
79371;SDS011;68914;51.262;6.802;2023-04-15T00:31:43;14.10;;;6.30;;
79371;SDS011;68914;51.262;6.802;2023-04-15T00:32:44;14.70;;;5.93;;
79371;SDS011;68914;51.262;6.802;2023-04-15T00:33:45;13.65;;;5.75;;
79371;SDS011;68914;51.262;6.802;2023-04-15T00:34:46;10.88;;;5.80;;
79371;SDS011;68914;51.262;6.802;2023-04-15T00:35:47;13.90;;;5.80;;
79371;SDS011;68914;51.262;6.802;2023-04-15T00:36:47;10.50;;;5.88;;
79371;SDS011;68914;51.262;6.802;2023-04-15T00:37:48;12.88;;;5.75;;
79371;SDS011;68914;51.262;6.802;2023-04-15T00:38:49;14.07;;;6.57;;
79371;SDS011;68914;51.262;6.802;2023-04-15T00:39:49;12.57;;;5.37;;
79371;SDS011;68914;51.262;6.802;2023-04-15T00:40:50;12.38;;;5.93;;
79371;SDS011;68914;51.262;6.802;2023-04-15T00:41:52;11.52;;;6.18;;
79371;SDS011;68914;51.262;6.802;2023-04-15T00:42:54;11.00;;;5.68;;
79371;SDS011;68914;51.262;6.802;2023-04-15T00:43:54;11.75;;;5.95;;
79371;SDS011;68914;51.262;6.802;2023-04-15T00:44:55;12.87;;;5.53;;
79371;SDS011;68914;51.262;6.802;2023-04-15T00:45:56;13.07;;;6.10;;
79371;SDS011;68914;51.262;6.802;2023-04-15T00:46:59;12.75;;;6.13;;
79371;SDS011;68914;51.262;6.802;2023-04-15T00:48:00;11.75;;;6.03;;
79371;SDS011;68914;51.262;6.802;2023-04-15T00:49:01;12.15;;;6.20;;
79371;SDS011;68914;51.262;6.802;2023-04-15T00:50:03;12.38;;;6.05;;
79371;SDS011;68914;51.262;6.802;2023-04-15T00:51:04;13.17;;;5.87;;
79371;SDS011;68914;51.262;6.802;2023-04-15T00:52:06;13.88;;;5.95;;
79371;SDS011;68914;51.262;6.802;2023-04-15T00:53:08;14.32;;;6.13;;
79371;SDS011;68914;51.262;6.802;2023-04-15T00:54:08;13.23;;;5.97;;
79371;SDS011;68914;51.262;6.802;2023-04-15T00:55:09;13.93;;;6.10;;
79371;SDS011;68914;51.262;6.802;2023-04-15T00:56:10;12.57;;;6.18;;
79371;SDS011;68914;51.262;6.802;2023-04-15T00:57:11;11.70;;;5.88;;
79371;SDS011;68914;51.262;6.802;2023-04-15T00:58:11;13.53;;;6.40;;
79371;SDS011;68914;51.262;6.802;2023-04-15T00:59:12;11.45;;;5.97;;
79371;SDS011;68914;51.262;6.802;2023-04-15T01:00:14;13.50;;;6.47;;
79371;SDS011;68914;51.262;6.802;2023-04-15T01:01:17;13.27;;;6.37;;
79371;SDS011;68914;51.262;6.802;2023-04-15T01:02:22;13.02;;;6.00;;
79371;SDS011;68914;51.262;6.802;2023-04-15T01:03:22;12.75;;;5.93;;
79371;SDS011;68914;51.262;6.802;2023-04-15T01:04:23;12.27;;;6.07;;
79371;SDS011;68914;51.262;6.802;2023-04-15T01:05:24;11.75;;;6.00;;
79371;SDS011;68914;51.262;6.802;2023-04-15T01:06:26;12.63;;;5.82;;
79371;SDS011;68914;51.262;6.802;2023-04-15T01:07:27;12.35;;;5.70;;
79371;SDS011;68914;51.262;6.802;2023-04-15T01:08:28;13.80;;;6.10;;
79371;SDS011;68914;51.262;6.802;2023-04-15T01:09:28;15.00;;;6.33;;
79371;SDS011;68914;51.262;6.802;2023-04-15T01:10:29;13.07;;;6.30;;
79371;SDS011;68914;51.262;6.802;2023-04-15T01:11:31;13.35;;;6.18;;
79371;SDS011;68914;51.262;6.802;2023-04-15T01:12:34;12.10;;;6.20;;
79371;SDS011;68914;51.262;6.802;2023-04-15T01:13:37;11.15;;;5.70;;
79371;SDS011;68914;51.262;6.802;2023-04-15T01:14:37;12.25;;;6.05;;
79371;SDS011;68914;51.262;6.802;2023-04-15T01:15:38;12.13;;;5.60;;
79371;SDS011;68914;51.262;6.802;2023-04-15T01:16:39;11.53;;;5.97;;
79371;SDS011;68914;51.262;6.802;2023-04-15T01:17:40;11.93;;;6.10;;
79371;SDS011;68914;51.262;6.802;2023-04-15T01:18:41;14.88;;;6.50;;
79371;SDS011;68914;51.262;6.802;2023-04-15T01:19:41;13.60;;;6.50;;
79371;SDS011;68914;51.262;6.802;2023-04-15T01:20:42;13.05;;;5.80;;
79371;SDS011;68914;51.262;6.802;2023-04-15T01:21:43;12.73;;;6.00;;
79371;SDS011;68914;51.262;6.802;2023-04-15T01:22:44;12.20;;;6.40;;
79371;SDS011;68914;51.262;6.802;2023-04-15T01:23:46;13.45;;;6.20;;
79371;SDS011;68914;51.262;6.802;2023-04-15T01:24:52;13.07;;;6.45;;
79371;SDS011;68914;51.262;6.802;2023-04-15T01:25:59;13.88;;;6.03;;
79371;SDS011;68914;51.262;6.802;2023-04-15T01:26:59;14.50;;;6.63;;
79371;SDS011;68914;51.262;6.802;2023-04-15T01:28:00;13.30;;;6.57;;
79371;SDS011;68914;51.262;6.802;2023-04-15T01:29:01;11.85;;;6.70;;
79371;SDS011;68914;51.262;6.802;2023-04-15T01:30:02;15.50;;;6.95;;
79371;SDS011;68914;51.262;6.802;2023-04-15T01:31:09;14.47;;;6.30;;
79371;SDS011;68914;51.262;6.802;2023-04-15T01:32:11;13.57;;;5.90;;
79371;SDS011;68914;51.262;6.802;2023-04-15T01:33:30;15.38;;;6.70;;
79371;SDS011;68914;51.262;6.802;2023-04-15T01:34:50;11.70;;;6.03;;
79371;SDS011;68914;51.262;6.802;2023-04-15T01:36:09;14.30;;;5.60;;
79371;SDS011;68914;51.262;6.802;2023-04-15T01:37:10;15.43;;;6.25;;
79371;SDS011;68914;51.262;6.802;2023-04-15T01:38:10;12.02;;;5.88;;
79371;SDS011;68914;51.262;6.802;2023-04-15T01:39:11;13.03;;;6.20;;
79371;SDS011;68914;51.262;6.802;2023-04-15T01:40:12;13.43;;;6.50;;
79371;SDS011;68914;51.262;6.802;2023-04-15T01:41:14;12.70;;;5.90;;
79371;SDS011;68914;51.262;6.802;2023-04-15T01:42:16;12.57;;;6.25;;
79371;SDS011;68914;51.262;6.802;2023-04-15T01:43:18;21.00;;;7.15;;
79371;SDS011;68914;51.262;6.802;2023-04-15T01:44:20;12.15;;;6.13;;
79371;SDS011;68914;51.262;6.802;2023-04-15T01:45:22;12.73;;;6.30;;
79371;SDS011;68914;51.262;6.802;2023-04-15T01:46:24;12.90;;;6.35;;
79371;SDS011;68914;51.262;6.802;2023-04-15T01:47:26;12.13;;;5.80;;
79371;SDS011;68914;51.262;6.802;2023-04-15T01:48:28;16.90;;;6.43;;
79371;SDS011;68914;51.262;6.802;2023-04-15T01:49:31;12.70;;;6.20;;
79371;SDS011;68914;51.262;6.802;2023-04-15T01:50:35;14.70;;;6.63;;
79371;SDS011;68914;51.262;6.802;2023-04-15T01:51:38;12.75;;;6.13;;
79371;SDS011;68914;51.262;6.802;2023-04-15T01:52:41;11.80;;;5.85;;
79371;SDS011;68914;51.262;6.802;2023-04-15T01:53:42;15.93;;;6.57;;
79371;SDS011;68914;51.262;6.802;2023-04-15T01:54:44;13.82;;;6.18;;
79371;SDS011;68914;51.262;6.802;2023-04-15T01:55:47;12.32;;;6.30;;
79371;SDS011;68914;51.262;6.802;2023-04-15T01:56:49;13.52;;;6.10;;
79371;SDS011;68914;51.262;6.802;2023-04-15T01:57:51;12.97;;;6.27;;
79371;SDS011;68914;51.262;6.802;2023-04-15T01:58:53;13.80;;;6.57;;
79371;SDS011;68914;51.262;6.802;2023-04-15T01:59:55;12.05;;;6.35;;
79371;SDS011;68914;51.262;6.802;2023-04-15T02:00:57;13.82;;;6.32;;
79371;SDS011;68914;51.262;6.802;2023-04-15T02:01:58;12.55;;;6.28;;
79371;SDS011;68914;51.262;6.802;2023-04-15T02:03:02;13.27;;;6.38;;
79371;SDS011;68914;51.262;6.802;2023-04-15T02:04:04;13.35;;;6.43;;
79371;SDS011;68914;51.262;6.802;2023-04-15T02:05:06;14.13;;;6.20;;
79371;SDS011;68914;51.262;6.802;2023-04-15T02:06:08;13.80;;;6.13;;
79371;SDS011;68914;51.262;6.802;2023-04-15T02:07:10;13.15;;;6.25;;
79371;SDS011;68914;51.262;6.802;2023-04-15T02:08:12;13.80;;;6.00;;
79371;SDS011;68914;51.262;6.802;2023-04-15T02:09:14;14.82;;;6.35;;
79371;SDS011;68914;51.262;6.802;2023-04-15T02:10:15;12.02;;;5.82;;
79371;SDS011;68914;51.262;6.802;2023-04-15T02:11:17;11.32;;;6.00;;
79371;SDS011;68914;51.262;6.802;2023-04-15T02:12:21;14.40;;;6.72;;
79371;SDS011;68914;51.262;6.802;2023-04-15T02:13:22;12.02;;;6.13;;
79371;SDS011;68914;51.262;6.802;2023-04-15T02:14:24;14.25;;;6.15;;
79371;SDS011;68914;51.262;6.802;2023-04-15T02:15:29;11.70;;;6.28;;
79371;SDS011;68914;51.262;6.802;2023-04-15T02:16:31;13.75;;;7.20;;
79371;SDS011;68914;51.262;6.802;2023-04-15T02:17:34;15.38;;;6.13;;
79371;SDS011;68914;51.262;6.802;2023-04-15T02:18:36;12.77;;;6.30;;
79371;SDS011;68914;51.262;6.802;2023-04-15T02:19:38;12.93;;;6.35;;
79371;SDS011;68914;51.262;6.802;2023-04-15T02:20:40;17.02;;;6.75;;
79371;SDS011;68914;51.262;6.802;2023-04-15T02:21:44;13.60;;;6.22;;
79371;SDS011;68914;51.262;6.802;2023-04-15T02:22:46;12.93;;;6.93;;
79371;SDS011;68914;51.262;6.802;2023-04-15T02:23:50;13.32;;;6.70;;
79371;SDS011;68914;51.262;6.802;2023-04-15T02:24:52;12.48;;;6.10;;
79371;SDS011;68914;51.262;6.802;2023-04-15T02:25:54;13.00;;;6.43;;
79371;SDS011;68914;51.262;6.802;2023-04-15T02:26:56;14.88;;;6.60;;
79371;SDS011;68914;51.262;6.802;2023-04-15T02:27:58;15.18;;;6.60;;
79371;SDS011;68914;51.262;6.802;2023-04-15T02:29:00;15.17;;;6.30;;
79371;SDS011;68914;51.262;6.802;2023-04-15T02:30:02;15.27;;;6.60;;
79371;SDS011;68914;51.262;6.802;2023-04-15T02:31:04;14.00;;;6.20;;
79371;SDS011;68914;51.262;6.802;2023-04-15T02:32:07;13.00;;;6.07;;
79371;SDS011;68914;51.262;6.802;2023-04-15T02:33:08;13.18;;;6.50;;
79371;SDS011;68914;51.262;6.802;2023-04-15T02:34:10;12.73;;;6.25;;
79371;SDS011;68914;51.262;6.802;2023-04-15T02:35:12;13.45;;;6.47;;
79371;SDS011;68914;51.262;6.802;2023-04-15T02:36:14;13.45;;;6.80;;
79371;SDS011;68914;51.262;6.802;2023-04-15T02:37:16;14.23;;;6.95;;
79371;SDS011;68914;51.262;6.802;2023-04-15T02:38:19;14.10;;;6.50;;
79371;SDS011;68914;51.262;6.802;2023-04-15T02:39:22;16.90;;;6.37;;
79371;SDS011;68914;51.262;6.802;2023-04-15T02:40:24;14.75;;;6.55;;
79371;SDS011;68914;51.262;6.802;2023-04-15T02:41:25;13.98;;;6.32;;
79371;SDS011;68914;51.262;6.802;2023-04-15T02:42:29;14.55;;;6.20;;
79371;SDS011;68914;51.262;6.802;2023-04-15T02:43:33;12.63;;;6.03;;
79371;SDS011;68914;51.262;6.802;2023-04-15T02:44:35;11.75;;;6.20;;
79371;SDS011;68914;51.262;6.802;2023-04-15T02:45:39;12.73;;;6.35;;
79371;SDS011;68914;51.262;6.802;2023-04-15T02:46:41;13.02;;;6.15;;
79371;SDS011;68914;51.262;6.802;2023-04-15T02:47:43;12.70;;;6.10;;
79371;SDS011;68914;51.262;6.802;2023-04-15T02:48:46;13.35;;;6.30;;
79371;SDS011;68914;51.262;6.802;2023-04-15T02:49:48;13.07;;;6.33;;
79371;SDS011;68914;51.262;6.802;2023-04-15T02:50:50;13.75;;;6.50;;
79371;SDS011;68914;51.262;6.802;2023-04-15T02:51:52;13.52;;;6.85;;
79371;SDS011;68914;51.262;6.802;2023-04-15T02:52:54;14.88;;;7.07;;
79371;SDS011;68914;51.262;6.802;2023-04-15T02:53:56;13.40;;;5.80;;
79371;SDS011;68914;51.262;6.802;2023-04-15T02:54:58;13.00;;;6.00;;
79371;SDS011;68914;51.262;6.802;2023-04-15T02:56:04;12.18;;;6.43;;
79371;SDS011;68914;51.262;6.802;2023-04-15T02:57:06;14.38;;;6.60;;
79371;SDS011;68914;51.262;6.802;2023-04-15T02:58:08;12.30;;;6.00;;
79371;SDS011;68914;51.262;6.802;2023-04-15T02:59:11;13.27;;;6.70;;
79371;SDS011;68914;51.262;6.802;2023-04-15T03:00:13;15.83;;;6.33;;
79371;SDS011;68914;51.262;6.802;2023-04-15T03:01:17;12.30;;;6.10;;
79371;SDS011;68914;51.262;6.802;2023-04-15T03:02:20;12.25;;;6.28;;
79371;SDS011;68914;51.262;6.802;2023-04-15T03:03:22;14.48;;;6.50;;
79371;SDS011;68914;51.262;6.802;2023-04-15T03:04:24;11.82;;;6.40;;
79371;SDS011;68914;51.262;6.802;2023-04-15T03:05:26;14.05;;;6.53;;
79371;SDS011;68914;51.262;6.802;2023-04-15T03:06:28;12.43;;;6.03;;
79371;SDS011;68914;51.262;6.802;2023-04-15T03:07:30;13.05;;;6.80;;
79371;SDS011;68914;51.262;6.802;2023-04-15T03:08:32;13.45;;;6.68;;
79371;SDS011;68914;51.262;6.802;2023-04-15T03:09:34;13.38;;;6.78;;
79371;SDS011;68914;51.262;6.802;2023-04-15T03:10:38;12.50;;;6.00;;
79371;SDS011;68914;51.262;6.802;2023-04-15T03:11:39;12.60;;;6.40;;
79371;SDS011;68914;51.262;6.802;2023-04-15T03:12:44;12.07;;;6.10;;
79371;SDS011;68914;51.262;6.802;2023-04-15T03:13:50;12.18;;;5.93;;
79371;SDS011;68914;51.262;6.802;2023-04-15T03:15:02;11.95;;;6.10;;
79371;SDS011;68914;51.262;6.802;2023-04-15T03:16:10;12.00;;;5.97;;
79371;SDS011;68914;51.262;6.802;2023-04-15T03:17:12;13.35;;;6.55;;
79371;SDS011;68914;51.262;6.802;2023-04-15T03:18:14;13.10;;;6.25;;
79371;SDS011;68914;51.262;6.802;2023-04-15T03:19:16;13.63;;;6.63;;
79371;SDS011;68914;51.262;6.802;2023-04-15T03:20:18;13.48;;;6.43;;
79371;SDS011;68914;51.262;6.802;2023-04-15T03:21:22;12.47;;;6.27;;
79371;SDS011;68914;51.262;6.802;2023-04-15T03:22:24;11.82;;;6.18;;
79371;SDS011;68914;51.262;6.802;2023-04-15T03:23:27;12.98;;;6.07;;
79371;SDS011;68914;51.262;6.802;2023-04-15T03:24:32;14.20;;;6.10;;
79371;SDS011;68914;51.262;6.802;2023-04-15T03:25:34;13.10;;;5.88;;
79371;SDS011;68914;51.262;6.802;2023-04-15T03:26:38;11.55;;;5.82;;
79371;SDS011;68914;51.262;6.802;2023-04-15T03:27:47;13.77;;;6.30;;
79371;SDS011;68914;51.262;6.802;2023-04-15T03:28:49;13.18;;;6.25;;
79371;SDS011;68914;51.262;6.802;2023-04-15T03:29:53;12.68;;;6.13;;
79371;SDS011;68914;51.262;6.802;2023-04-15T03:30:56;12.85;;;5.97;;
79371;SDS011;68914;51.262;6.802;2023-04-15T03:31:58;14.07;;;6.60;;
79371;SDS011;68914;51.262;6.802;2023-04-15T03:33:00;13.27;;;6.25;;
79371;SDS011;68914;51.262;6.802;2023-04-15T03:34:02;12.02;;;6.00;;
79371;SDS011;68914;51.262;6.802;2023-04-15T03:35:04;13.55;;;6.53;;
79371;SDS011;68914;51.262;6.802;2023-04-15T03:36:06;12.55;;;6.30;;
79371;SDS011;68914;51.262;6.802;2023-04-15T03:37:08;12.82;;;6.05;;
79371;SDS011;68914;51.262;6.802;2023-04-15T03:38:10;13.65;;;6.55;;
79371;SDS011;68914;51.262;6.802;2023-04-15T03:39:12;13.15;;;6.28;;
79371;SDS011;68914;51.262;6.802;2023-04-15T03:40:14;12.88;;;6.20;;
79371;SDS011;68914;51.262;6.802;2023-04-15T03:41:16;12.88;;;6.07;;
79371;SDS011;68914;51.262;6.802;2023-04-15T03:42:17;13.67;;;6.33;;
79371;SDS011;68914;51.262;6.802;2023-04-15T03:43:19;13.13;;;6.40;;
79371;SDS011;68914;51.262;6.802;2023-04-15T03:44:21;13.15;;;6.50;;
79371;SDS011;68914;51.262;6.802;2023-04-15T03:45:24;13.23;;;6.72;;
79371;SDS011;68914;51.262;6.802;2023-04-15T03:46:25;14.55;;;6.65;;
79371;SDS011;68914;51.262;6.802;2023-04-15T03:47:28;13.82;;;6.80;;
79371;SDS011;68914;51.262;6.802;2023-04-15T03:48:29;14.35;;;6.72;;
79371;SDS011;68914;51.262;6.802;2023-04-15T03:49:31;13.15;;;6.15;;
79371;SDS011;68914;51.262;6.802;2023-04-15T03:50:33;10.90;;;6.32;;
79371;SDS011;68914;51.262;6.802;2023-04-15T03:51:35;14.23;;;6.30;;
79371;SDS011;68914;51.262;6.802;2023-04-15T03:52:37;13.27;;;6.63;;
79371;SDS011;68914;51.262;6.802;2023-04-15T03:53:39;12.27;;;6.30;;
79371;SDS011;68914;51.262;6.802;2023-04-15T03:54:40;15.25;;;6.60;;
79371;SDS011;68914;51.262;6.802;2023-04-15T03:55:42;13.02;;;6.35;;
79371;SDS011;68914;51.262;6.802;2023-04-15T03:56:45;12.73;;;6.45;;
79371;SDS011;68914;51.262;6.802;2023-04-15T03:57:47;14.75;;;6.97;;
79371;SDS011;68914;51.262;6.802;2023-04-15T03:58:48;14.98;;;6.95;;
79371;SDS011;68914;51.262;6.802;2023-04-15T03:59:50;13.75;;;6.70;;
79371;SDS011;68914;51.262;6.802;2023-04-15T04:00:52;14.90;;;6.80;;
79371;SDS011;68914;51.262;6.802;2023-04-15T04:01:55;12.82;;;6.05;;
79371;SDS011;68914;51.262;6.802;2023-04-15T04:02:57;12.53;;;6.37;;
79371;SDS011;68914;51.262;6.802;2023-04-15T04:03:58;14.38;;;6.40;;
79371;SDS011;68914;51.262;6.802;2023-04-15T04:05:00;14.10;;;7.03;;
79371;SDS011;68914;51.262;6.802;2023-04-15T04:06:02;16.42;;;7.28;;
79371;SDS011;68914;51.262;6.802;2023-04-15T04:07:04;16.10;;;6.90;;
79371;SDS011;68914;51.262;6.802;2023-04-15T04:08:06;12.30;;;5.97;;
79371;SDS011;68914;51.262;6.802;2023-04-15T04:09:08;13.80;;;6.50;;
79371;SDS011;68914;51.262;6.802;2023-04-15T04:10:09;12.73;;;6.82;;
79371;SDS011;68914;51.262;6.802;2023-04-15T04:11:11;13.68;;;7.20;;
79371;SDS011;68914;51.262;6.802;2023-04-15T04:12:13;13.57;;;6.43;;
79371;SDS011;68914;51.262;6.802;2023-04-15T04:13:15;13.37;;;6.50;;
79371;SDS011;68914;51.262;6.802;2023-04-15T04:14:17;13.38;;;6.05;;
79371;SDS011;68914;51.262;6.802;2023-04-15T04:15:19;16.85;;;7.22;;
79371;SDS011;68914;51.262;6.802;2023-04-15T04:16:20;14.07;;;6.80;;
79371;SDS011;68914;51.262;6.802;2023-04-15T04:17:22;16.67;;;7.38;;
79371;SDS011;68914;51.262;6.802;2023-04-15T04:18:24;15.57;;;6.72;;
79371;SDS011;68914;51.262;6.802;2023-04-15T04:19:26;15.68;;;6.90;;
79371;SDS011;68914;51.262;6.802;2023-04-15T04:20:28;15.52;;;7.70;;
79371;SDS011;68914;51.262;6.802;2023-04-15T04:21:32;14.43;;;6.63;;
79371;SDS011;68914;51.262;6.802;2023-04-15T04:22:40;13.85;;;6.78;;
79371;SDS011;68914;51.262;6.802;2023-04-15T04:23:42;13.33;;;6.90;;
79371;SDS011;68914;51.262;6.802;2023-04-15T04:24:43;14.38;;;6.50;;
79371;SDS011;68914;51.262;6.802;2023-04-15T04:25:45;13.43;;;6.57;;
79371;SDS011;68914;51.262;6.802;2023-04-15T04:26:48;13.52;;;6.93;;
79371;SDS011;68914;51.262;6.802;2023-04-15T04:27:49;14.95;;;7.00;;
79371;SDS011;68914;51.262;6.802;2023-04-15T04:28:51;14.85;;;6.80;;
79371;SDS011;68914;51.262;6.802;2023-04-15T04:29:53;16.40;;;7.20;;
79371;SDS011;68914;51.262;6.802;2023-04-15T04:30:55;13.60;;;6.68;;
79371;SDS011;68914;51.262;6.802;2023-04-15T04:31:57;14.32;;;7.07;;
79371;SDS011;68914;51.262;6.802;2023-04-15T04:32:59;15.75;;;7.13;;
79371;SDS011;68914;51.262;6.802;2023-04-15T04:34:00;14.20;;;7.00;;
79371;SDS011;68914;51.262;6.802;2023-04-15T04:35:03;17.40;;;7.55;;
79371;SDS011;68914;51.262;6.802;2023-04-15T04:36:05;15.43;;;7.82;;
79371;SDS011;68914;51.262;6.802;2023-04-15T04:37:07;15.23;;;7.10;;
79371;SDS011;68914;51.262;6.802;2023-04-15T04:38:09;16.25;;;7.53;;
79371;SDS011;68914;51.262;6.802;2023-04-15T04:39:11;16.40;;;7.90;;
79371;SDS011;68914;51.262;6.802;2023-04-15T04:40:13;16.92;;;7.50;;
79371;SDS011;68914;51.262;6.802;2023-04-15T04:41:15;13.55;;;7.30;;
79371;SDS011;68914;51.262;6.802;2023-04-15T04:42:16;15.30;;;7.53;;
79371;SDS011;68914;51.262;6.802;2023-04-15T04:43:18;15.18;;;7.38;;
79371;SDS011;68914;51.262;6.802;2023-04-15T04:44:20;17.87;;;7.90;;
79371;SDS011;68914;51.262;6.802;2023-04-15T04:45:22;18.83;;;7.50;;
79371;SDS011;68914;51.262;6.802;2023-04-15T04:46:24;15.48;;;7.57;;
79371;SDS011;68914;51.262;6.802;2023-04-15T04:47:26;16.77;;;7.53;;
79371;SDS011;68914;51.262;6.802;2023-04-15T04:48:28;15.55;;;7.85;;
79371;SDS011;68914;51.262;6.802;2023-04-15T04:49:29;15.75;;;7.28;;
79371;SDS011;68914;51.262;6.802;2023-04-15T04:50:31;17.48;;;7.50;;
79371;SDS011;68914;51.262;6.802;2023-04-15T04:51:33;16.10;;;7.90;;
79371;SDS011;68914;51.262;6.802;2023-04-15T04:52:35;17.58;;;7.63;;
79371;SDS011;68914;51.262;6.802;2023-04-15T04:53:37;15.82;;;7.63;;
79371;SDS011;68914;51.262;6.802;2023-04-15T04:54:39;14.50;;;7.40;;
79371;SDS011;68914;51.262;6.802;2023-04-15T04:55:41;14.30;;;7.13;;
79371;SDS011;68914;51.262;6.802;2023-04-15T04:56:43;18.45;;;8.43;;
79371;SDS011;68914;51.262;6.802;2023-04-15T04:57:45;16.92;;;7.55;;
79371;SDS011;68914;51.262;6.802;2023-04-15T04:58:47;15.20;;;7.20;;
79371;SDS011;68914;51.262;6.802;2023-04-15T04:59:48;18.23;;;7.82;;
79371;SDS011;68914;51.262;6.802;2023-04-15T05:00:50;14.52;;;7.88;;
79371;SDS011;68914;51.262;6.802;2023-04-15T05:01:52;17.80;;;7.30;;
79371;SDS011;68914;51.262;6.802;2023-04-15T05:02:54;14.35;;;7.28;;
79371;SDS011;68914;51.262;6.802;2023-04-15T05:03:56;15.35;;;7.53;;
79371;SDS011;68914;51.262;6.802;2023-04-15T05:04:58;16.83;;;7.73;;
79371;SDS011;68914;51.262;6.802;2023-04-15T05:06:00;15.00;;;7.72;;
79371;SDS011;68914;51.262;6.802;2023-04-15T05:07:03;16.42;;;8.05;;
79371;SDS011;68914;51.262;6.802;2023-04-15T05:08:05;16.77;;;7.90;;
79371;SDS011;68914;51.262;6.802;2023-04-15T05:09:07;17.73;;;7.75;;
79371;SDS011;68914;51.262;6.802;2023-04-15T05:10:09;15.57;;;7.72;;
79371;SDS011;68914;51.262;6.802;2023-04-15T05:11:11;15.32;;;7.78;;
79371;SDS011;68914;51.262;6.802;2023-04-15T05:12:13;18.13;;;8.10;;
79371;SDS011;68914;51.262;6.802;2023-04-15T05:13:15;16.38;;;7.80;;
79371;SDS011;68914;51.262;6.802;2023-04-15T05:14:17;15.65;;;7.45;;
79371;SDS011;68914;51.262;6.802;2023-04-15T05:15:19;15.60;;;7.23;;
79371;SDS011;68914;51.262;6.802;2023-04-15T05:16:20;18.08;;;7.78;;
79371;SDS011;68914;51.262;6.802;2023-04-15T05:17:22;15.82;;;7.57;;
79371;SDS011;68914;51.262;6.802;2023-04-15T05:18:24;17.10;;;8.18;;
79371;SDS011;68914;51.262;6.802;2023-04-15T05:19:26;16.95;;;8.02;;
79371;SDS011;68914;51.262;6.802;2023-04-15T05:20:28;15.75;;;8.25;;
79371;SDS011;68914;51.262;6.802;2023-04-15T05:21:30;16.08;;;7.95;;
79371;SDS011;68914;51.262;6.802;2023-04-15T05:22:32;15.85;;;8.02;;
79371;SDS011;68914;51.262;6.802;2023-04-15T05:23:34;17.77;;;7.88;;
79371;SDS011;68914;51.262;6.802;2023-04-15T05:24:35;16.67;;;7.28;;
79371;SDS011;68914;51.262;6.802;2023-04-15T05:25:37;16.87;;;8.07;;
79371;SDS011;68914;51.262;6.802;2023-04-15T05:26:39;15.85;;;7.88;;
79371;SDS011;68914;51.262;6.802;2023-04-15T05:27:41;16.25;;;8.00;;
79371;SDS011;68914;51.262;6.802;2023-04-15T05:28:43;19.88;;;9.10;;
79371;SDS011;68914;51.262;6.802;2023-04-15T05:29:45;16.95;;;8.45;;
79371;SDS011;68914;51.262;6.802;2023-04-15T05:30:47;16.00;;;7.45;;
79371;SDS011;68914;51.262;6.802;2023-04-15T05:31:49;18.75;;;8.80;;
79371;SDS011;68914;51.262;6.802;2023-04-15T05:32:51;17.45;;;8.40;;
79371;SDS011;68914;51.262;6.802;2023-04-15T05:33:53;16.75;;;8.38;;
79371;SDS011;68914;51.262;6.802;2023-04-15T05:34:54;17.85;;;8.45;;
79371;SDS011;68914;51.262;6.802;2023-04-15T05:35:56;16.27;;;7.97;;
79371;SDS011;68914;51.262;6.802;2023-04-15T05:36:58;18.08;;;8.40;;
79371;SDS011;68914;51.262;6.802;2023-04-15T05:38:00;18.38;;;8.75;;
79371;SDS011;68914;51.262;6.802;2023-04-15T05:39:02;17.00;;;8.38;;
79371;SDS011;68914;51.262;6.802;2023-04-15T05:40:04;17.50;;;8.95;;
79371;SDS011;68914;51.262;6.802;2023-04-15T05:41:07;17.85;;;8.32;;
79371;SDS011;68914;51.262;6.802;2023-04-15T05:42:09;16.60;;;8.23;;
79371;SDS011;68914;51.262;6.802;2023-04-15T05:43:11;15.85;;;7.90;;
79371;SDS011;68914;51.262;6.802;2023-04-15T05:44:12;17.58;;;8.25;;
79371;SDS011;68914;51.262;6.802;2023-04-15T05:45:14;16.33;;;8.23;;
79371;SDS011;68914;51.262;6.802;2023-04-15T05:46:16;17.73;;;8.47;;
79371;SDS011;68914;51.262;6.802;2023-04-15T05:47:18;17.55;;;8.13;;
79371;SDS011;68914;51.262;6.802;2023-04-15T05:48:20;18.30;;;9.00;;
79371;SDS011;68914;51.262;6.802;2023-04-15T05:49:21;17.52;;;7.65;;
79371;SDS011;68914;51.262;6.802;2023-04-15T05:50:23;19.80;;;9.35;;
79371;SDS011;68914;51.262;6.802;2023-04-15T05:51:25;20.00;;;8.95;;
79371;SDS011;68914;51.262;6.802;2023-04-15T05:52:27;17.02;;;8.90;;
79371;SDS011;68914;51.262;6.802;2023-04-15T05:53:29;19.25;;;9.07;;
79371;SDS011;68914;51.262;6.802;2023-04-15T05:54:31;23.80;;;11.00;;
79371;SDS011;68914;51.262;6.802;2023-04-15T05:55:33;20.50;;;9.30;;
79371;SDS011;68914;51.262;6.802;2023-04-15T05:56:34;19.77;;;9.23;;
79371;SDS011;68914;51.262;6.802;2023-04-15T05:57:37;16.20;;;8.48;;
79371;SDS011;68914;51.262;6.802;2023-04-15T05:58:39;18.90;;;9.57;;
79371;SDS011;68914;51.262;6.802;2023-04-15T05:59:40;18.48;;;9.15;;
79371;SDS011;68914;51.262;6.802;2023-04-15T06:00:43;18.63;;;8.90;;
79371;SDS011;68914;51.262;6.802;2023-04-15T06:01:45;19.55;;;9.10;;
79371;SDS011;68914;51.262;6.802;2023-04-15T06:02:46;21.52;;;9.15;;
79371;SDS011;68914;51.262;6.802;2023-04-15T06:03:48;18.73;;;9.70;;
79371;SDS011;68914;51.262;6.802;2023-04-15T06:04:51;19.10;;;10.00;;
79371;SDS011;68914;51.262;6.802;2023-04-15T06:05:53;18.13;;;9.48;;
79371;SDS011;68914;51.262;6.802;2023-04-15T06:06:55;19.23;;;9.80;;
79371;SDS011;68914;51.262;6.802;2023-04-15T06:07:57;19.45;;;10.20;;